createdAt,value
2022-08-27T00:02:09.876Z,9.20
2022-08-27T00:04:38.726Z,8.80
2022-08-27T00:07:08.433Z,9.00
2022-08-27T00:09:37.454Z,8.70
2022-08-27T00:12:06.150Z,9.60
2022-08-27T00:14:35.411Z,9.80
2022-08-27T00:17:05.802Z,9.20
2022-08-27T00:19:36.184Z,8.90
2022-08-27T00:22:08.801Z,8.90
2022-08-27T00:24:38.527Z,9.50
2022-08-27T00:27:18.085Z,10.20
2022-08-27T00:29:48.108Z,9.10
2022-08-27T00:32:17.302Z,9.80
2022-08-27T00:34:45.662Z,10.00
2022-08-27T00:37:14.091Z,10.10
2022-08-27T00:39:42.164Z,9.90
2022-08-27T00:42:10.572Z,9.70
2022-08-27T00:44:39.086Z,9.80
2022-08-27T00:47:17.625Z,9.60
2022-08-27T00:49:53.333Z,10.10
2022-08-27T00:52:34.786Z,9.30
2022-08-27T00:55:20.863Z,9.50
2022-08-27T00:58:03.206Z,10.20
2022-08-27T01:00:34.196Z,10.40
2022-08-27T01:03:02.281Z,10.10
2022-08-27T01:05:30.673Z,10.00
2022-08-27T01:08:04.622Z,9.90
2022-08-27T01:10:32.793Z,10.10
2022-08-27T01:13:00.976Z,9.60
2022-08-27T01:15:30.709Z,10.10
2022-08-27T01:17:59.943Z,10.50
2022-08-27T01:20:35.242Z,9.80
2022-08-27T01:23:25.637Z,11.20
2022-08-27T01:25:53.665Z,10.10
2022-08-27T01:28:22.798Z,9.90
2022-08-27T01:30:52.012Z,10.80
2022-08-27T01:33:22.040Z,11.10
2022-08-27T01:35:52.669Z,10.10
2022-08-27T01:38:30.626Z,9.80
2022-08-27T01:41:01.245Z,10.20
2022-08-27T01:43:31.560Z,11.10
2022-08-27T01:45:59.670Z,10.30
2022-08-27T01:48:27.672Z,11.30
2022-08-27T01:50:56.697Z,10.80
2022-08-27T01:53:27.138Z,11.60
2022-08-27T01:55:56.394Z,11.00
2022-08-27T01:58:30.744Z,10.90
2022-08-27T02:01:03.461Z,10.80
2022-08-27T02:03:32.820Z,10.80
2022-08-27T02:06:06.307Z,10.90
2022-08-27T02:08:34.562Z,11.80
2022-08-27T02:11:03.001Z,10.50
2022-08-27T02:13:31.001Z,10.50
2022-08-27T02:15:58.968Z,10.80
2022-08-27T02:18:27.058Z,12.00
2022-08-27T02:20:55.037Z,11.60
2022-08-27T02:23:23.102Z,11.50
2022-08-27T02:25:51.352Z,11.80
2022-08-27T02:28:19.446Z,11.60
2022-08-27T02:30:47.392Z,11.70
2022-08-27T02:33:15.803Z,11.60
2022-08-27T02:35:44.530Z,11.40
2022-08-27T02:38:14.299Z,12.10
2022-08-27T02:40:42.964Z,12.00
2022-08-27T02:43:15.998Z,11.70
2022-08-27T02:45:52.145Z,11.70
2022-08-27T02:48:20.901Z,11.90
2022-08-27T02:50:48.932Z,11.40
2022-08-27T02:53:19.077Z,11.10
2022-08-27T02:55:47.941Z,11.80
2022-08-27T02:58:17.622Z,11.10
2022-08-27T03:00:45.891Z,11.60
2022-08-27T03:03:14.082Z,11.90
2022-08-27T03:05:42.417Z,12.00
2022-08-27T03:08:10.842Z,11.30
2022-08-27T03:10:39.005Z,11.70
2022-08-27T03:13:07.092Z,11.50
2022-08-27T03:15:35.073Z,11.60
2022-08-27T03:18:22.031Z,11.90
2022-08-27T03:20:55.050Z,12.10
2022-08-27T03:23:25.615Z,11.90
2022-08-27T03:26:03.022Z,12.40
2022-08-27T03:28:35.794Z,12.20
2022-08-27T03:31:07.868Z,11.80
2022-08-27T03:33:38.944Z,11.70
2022-08-27T03:36:09.185Z,11.50
2022-08-27T03:38:38.250Z,11.40
2022-08-27T03:41:07.525Z,11.90
2022-08-27T03:43:35.833Z,11.80
2022-08-27T03:46:03.939Z,11.50
2022-08-27T03:48:32.950Z,12.20
2022-08-27T03:51:06.852Z,11.80
2022-08-27T03:53:36.667Z,12.10
2022-08-27T03:56:06.510Z,11.60
2022-08-27T03:58:36.231Z,12.50
2022-08-27T04:01:06.358Z,12.40
2022-08-27T04:03:35.518Z,11.30
2022-08-27T04:06:04.200Z,11.20
2022-08-27T04:08:32.139Z,11.40
2022-08-27T04:11:00.330Z,11.20
2022-08-27T04:13:28.265Z,11.40
2022-08-27T04:15:57.187Z,11.60
2022-08-27T04:18:25.277Z,11.80
2022-08-27T04:20:53.262Z,11.70
2022-08-27T04:23:21.945Z,11.80
2022-08-27T04:25:50.757Z,11.40
2022-08-27T04:28:18.818Z,11.30
2022-08-27T04:30:47.491Z,12.10
2022-08-27T04:33:15.574Z,11.00
2022-08-27T04:35:43.799Z,11.30
2022-08-27T04:38:12.473Z,11.70
2022-08-27T04:40:59.104Z,11.20
2022-08-27T04:43:28.965Z,11.50
2022-08-27T04:45:57.397Z,11.90
2022-08-27T04:48:25.999Z,11.60
2022-08-27T04:50:54.101Z,12.20
2022-08-27T04:53:22.535Z,11.70
2022-08-27T04:55:53.625Z,11.30
2022-08-27T04:58:23.197Z,11.10
2022-08-27T05:00:54.426Z,11.80
2022-08-27T05:03:24.431Z,11.80
2022-08-27T05:05:54.492Z,11.20
2022-08-27T05:08:22.670Z,10.80
2022-08-27T05:10:51.602Z,11.30
2022-08-27T05:13:23.889Z,11.10
2022-08-27T05:16:00.379Z,10.80
2022-08-27T05:18:28.632Z,11.30
2022-08-27T05:20:57.572Z,10.90
2022-08-27T05:23:28.318Z,10.90
2022-08-27T05:25:57.752Z,10.20
2022-08-27T05:28:28.303Z,9.80
2022-08-27T05:31:05.395Z,9.80
2022-08-27T05:33:34.395Z,9.90
2022-08-27T05:36:02.570Z,9.70
2022-08-27T05:38:31.455Z,9.30
2022-08-27T05:41:21.140Z,9.30
2022-08-27T05:43:50.520Z,10.00
2022-08-27T05:46:22.557Z,9.10
2022-08-27T05:49:11.358Z,8.60
2022-08-27T05:51:39.312Z,9.30
2022-08-27T05:54:11.601Z,8.60
2022-08-27T05:56:42.089Z,8.30
2022-08-27T05:59:28.903Z,8.20
2022-08-27T06:01:58.912Z,9.10
2022-08-27T06:04:30.321Z,8.50
2022-08-27T06:06:58.299Z,8.80
2022-08-27T06:09:29.665Z,8.10
2022-08-27T06:12:00.527Z,8.30
2022-08-27T06:14:28.959Z,8.50
2022-08-27T06:16:57.266Z,8.40
2022-08-27T06:19:25.322Z,8.50
2022-08-27T06:22:01.280Z,8.50
2022-08-27T06:24:41.099Z,8.60
2022-08-27T06:27:16.441Z,8.20
2022-08-27T06:29:45.002Z,8.50
2022-08-27T06:32:15.080Z,8.20
2022-08-27T06:34:43.110Z,8.10
2022-08-27T06:37:11.241Z,8.10
2022-08-27T06:39:40.549Z,8.70
2022-08-27T06:42:12.148Z,8.40
2022-08-27T06:44:40.587Z,9.20
2022-08-27T06:47:08.515Z,8.90
2022-08-27T06:49:40.343Z,8.70
2022-08-27T06:52:08.435Z,9.00
2022-08-27T06:54:37.602Z,8.40
2022-08-27T06:57:05.737Z,8.60
2022-08-27T06:59:33.671Z,8.50
2022-08-27T07:02:01.751Z,8.50
2022-08-27T07:04:32.240Z,8.80
2022-08-27T07:07:02.708Z,8.90
2022-08-27T07:09:32.756Z,8.10
2022-08-27T07:12:01.786Z,8.00
2022-08-27T07:14:34.267Z,8.30
2022-08-27T07:17:08.194Z,8.60
2022-08-27T07:19:40.693Z,8.30
2022-08-27T07:22:09.863Z,8.30
2022-08-27T07:24:38.753Z,8.50
2022-08-27T07:27:10.452Z,9.50
2022-08-27T07:29:38.566Z,9.00
2022-08-27T07:32:06.941Z,8.80
2022-08-27T07:34:35.466Z,7.50
2022-08-27T07:37:03.582Z,12.50
2022-08-27T07:39:41.703Z,8.20
2022-08-27T07:42:48.740Z,7.50
2022-08-27T07:45:17.114Z,8.00
2022-08-27T07:47:45.315Z,7.80
2022-08-27T07:50:14.218Z,8.10
2022-08-27T07:52:44.422Z,7.40
2022-08-27T07:55:13.766Z,7.40
2022-08-27T07:57:42.342Z,7.30
2022-08-27T08:00:11.483Z,7.40
2022-08-27T08:02:42.361Z,8.10
2022-08-27T08:05:13.368Z,7.80
2022-08-27T08:07:41.826Z,7.30
2022-08-27T08:10:12.289Z,7.10
2022-08-27T08:12:41.242Z,7.40
2022-08-27T08:15:11.491Z,7.30
2022-08-27T08:17:39.912Z,7.40
2022-08-27T08:20:23.757Z,7.60
2022-08-27T08:22:55.852Z,8.20
2022-08-27T08:25:24.078Z,7.60
2022-08-27T08:27:52.530Z,7.30
2022-08-27T08:30:20.876Z,8.00
2022-08-27T08:32:49.068Z,7.80
2022-08-27T08:35:18.483Z,7.90
2022-08-27T08:37:47.356Z,7.70
2022-08-27T08:40:43.407Z,7.40
2022-08-27T08:43:25.845Z,7.80
2022-08-27T08:45:56.652Z,7.70
2022-08-27T08:48:30.000Z,7.70
2022-08-27T08:51:05.779Z,7.90
2022-08-27T08:53:38.841Z,7.30
2022-08-27T08:56:12.629Z,7.60
2022-08-27T08:58:59.054Z,7.30
2022-08-27T09:01:28.150Z,7.30
2022-08-27T09:04:03.735Z,7.70
2022-08-27T09:06:52.492Z,7.80
2022-08-27T09:09:27.820Z,8.20
2022-08-27T09:12:05.942Z,7.80
2022-08-27T09:14:41.714Z,8.60
2022-08-27T09:17:14.988Z,8.00
2022-08-27T09:19:43.663Z,7.70
2022-08-27T09:22:30.259Z,8.60
2022-08-27T09:25:22.813Z,7.70
2022-08-27T09:27:57.780Z,7.80
2022-08-27T09:30:31.748Z,7.80
2022-08-27T09:33:04.607Z,8.40
2022-08-27T09:35:45.161Z,7.80
2022-08-27T09:38:29.618Z,7.40
2022-08-27T09:41:02.062Z,7.30
2022-08-27T09:43:32.266Z,7.10
2022-08-27T09:46:05.677Z,7.50
2022-08-27T09:48:37.827Z,7.50
2022-08-27T09:51:15.127Z,6.90
2022-08-27T09:53:56.161Z,7.50
2022-08-27T09:56:53.933Z,7.50
2022-08-27T09:59:50.475Z,6.80
2022-08-27T10:02:22.551Z,7.10
2022-08-27T10:04:53.508Z,7.20
2022-08-27T10:07:54.286Z,7.40
2022-08-27T10:10:30.635Z,7.10
2022-08-27T10:13:13.432Z,7.70
2022-08-27T10:15:48.967Z,7.20
2022-08-27T10:18:48.140Z,6.40
2022-08-27T10:21:30.714Z,6.50
2022-08-27T10:24:20.252Z,7.00
2022-08-27T10:27:14.444Z,6.20
2022-08-27T10:30:01.294Z,6.10
2022-08-27T10:33:06.822Z,6.10
2022-08-27T10:36:04.637Z,6.00
2022-08-27T10:38:53.591Z,5.90
2022-08-27T10:42:14.261Z,5.90
2022-08-27T10:45:15.945Z,5.40
2022-08-27T10:48:30.942Z,5.70
2022-08-27T10:51:09.334Z,5.70
2022-08-27T10:53:48.342Z,5.50
2022-08-27T10:56:32.210Z,6.10
2022-08-27T10:59:18.006Z,5.60
2022-08-27T11:02:00.462Z,5.10
2022-08-27T11:04:35.708Z,4.60
2022-08-27T11:07:24.652Z,4.70
2022-08-27T11:10:13.765Z,4.10
2022-08-27T11:12:47.175Z,4.10
2022-08-27T11:15:23.542Z,4.50
2022-08-27T11:18:21.201Z,4.50
2022-08-27T11:21:03.443Z,4.30
2022-08-27T11:23:47.913Z,4.30
2022-08-27T11:26:16.235Z,4.70
2022-08-27T11:28:51.660Z,4.40
2022-08-27T11:31:34.209Z,4.60
2022-08-27T11:34:02.822Z,4.40
2022-08-27T11:36:53.252Z,4.80
2022-08-27T11:39:37.925Z,4.40
2022-08-27T11:42:17.864Z,4.50
2022-08-27T11:44:49.703Z,4.80
2022-08-27T11:47:24.804Z,4.70
2022-08-27T11:50:01.912Z,5.70
2022-08-27T11:52:40.216Z,5.40
2022-08-27T11:55:20.305Z,5.40
2022-08-27T11:58:02.622Z,5.50
2022-08-27T12:00:38.832Z,4.70
2022-08-27T12:03:19.109Z,5.70
2022-08-27T12:05:53.336Z,6.30
2022-08-27T12:08:24.329Z,6.40
2022-08-27T12:11:24.790Z,6.80
2022-08-27T12:14:14.812Z,6.30
2022-08-27T12:17:33.427Z,6.40
2022-08-27T12:20:26.241Z,6.70
2022-08-27T12:23:32.986Z,6.50
2022-08-27T12:26:32.936Z,5.90
2022-08-27T12:29:19.424Z,5.70
2022-08-27T12:32:00.524Z,6.00
2022-08-27T12:34:29.877Z,6.40
2022-08-27T12:36:57.921Z,6.40
2022-08-27T12:39:30.134Z,7.20
2022-08-27T12:41:58.237Z,7.20
2022-08-27T12:44:29.118Z,7.60
2022-08-27T12:47:05.527Z,7.40
2022-08-27T12:49:52.621Z,8.00
2022-08-27T12:52:56.925Z,8.20
2022-08-27T12:55:37.554Z,7.70
2022-08-27T12:58:16.031Z,8.00
2022-08-27T13:01:11.797Z,7.90
2022-08-27T13:03:44.605Z,7.50
2022-08-27T13:06:34.711Z,7.20
2022-08-27T13:09:07.520Z,8.50
2022-08-27T13:11:48.258Z,7.90
2022-08-27T13:14:20.372Z,7.50
2022-08-27T13:16:57.661Z,8.10
2022-08-27T13:19:30.819Z,7.40
2022-08-27T13:22:05.802Z,7.60
2022-08-27T13:24:35.739Z,7.90
2022-08-27T13:27:06.128Z,7.60
2022-08-27T13:29:34.851Z,7.60
2022-08-27T13:32:05.884Z,7.90
2022-08-27T13:34:38.925Z,7.90
2022-08-27T13:37:23.365Z,8.10
2022-08-27T13:39:57.159Z,7.80
2022-08-27T13:42:28.229Z,7.40
2022-08-27T13:45:06.337Z,7.40
2022-08-27T13:47:45.606Z,7.60
2022-08-27T13:50:20.840Z,8.10
2022-08-27T13:53:09.039Z,8.50
2022-08-27T13:55:47.995Z,8.10
2022-08-27T13:58:23.897Z,7.80
2022-08-27T14:00:52.420Z,7.70
2022-08-27T14:03:33.056Z,8.00
2022-08-27T14:06:02.644Z,7.90
2022-08-27T14:08:34.466Z,8.10
2022-08-27T14:11:07.232Z,7.50
2022-08-27T14:13:45.829Z,7.20
2022-08-27T14:16:24.392Z,8.50
2022-08-27T14:19:06.955Z,5.80
2022-08-27T14:21:57.173Z,7.90
2022-08-27T14:24:26.501Z,8.80
2022-08-27T14:27:04.177Z,9.30
2022-08-27T14:29:32.291Z,7.50
2022-08-27T14:32:00.292Z,9.90
2022-08-27T14:34:29.042Z,8.90
2022-08-27T14:36:57.357Z,7.00
2022-08-27T14:39:26.697Z,8.40
2022-08-27T14:41:56.455Z,9.30
2022-08-27T14:44:25.913Z,8.70
2022-08-27T14:46:55.023Z,12.60
2022-08-27T14:49:34.855Z,6.80
2022-08-27T14:52:05.564Z,6.40
2022-08-27T14:54:34.663Z,5.90
2022-08-27T14:57:03.953Z,6.20
2022-08-27T14:59:33.247Z,6.10
2022-08-27T15:02:04.918Z,5.90
2022-08-27T15:04:33.334Z,5.80
2022-08-27T15:07:01.785Z,6.00
2022-08-27T15:09:30.145Z,5.70
2022-08-27T15:11:58.545Z,7.20
2022-08-27T15:14:32.937Z,5.80
2022-08-27T15:17:01.426Z,6.10
2022-08-27T15:19:31.013Z,5.60
2022-08-27T15:22:23.526Z,5.20
2022-08-27T15:24:56.491Z,6.00
2022-08-27T15:27:30.119Z,6.10
2022-08-27T15:30:10.110Z,5.50
2022-08-27T15:32:42.107Z,5.60
2022-08-27T15:35:15.727Z,5.00
2022-08-27T15:37:45.456Z,5.20
2022-08-27T15:40:16.769Z,5.90
2022-08-27T15:42:45.375Z,5.20
2022-08-27T15:45:14.792Z,5.30
2022-08-27T15:47:43.225Z,4.90
2022-08-27T15:50:11.620Z,5.20
2022-08-27T15:52:41.862Z,5.00
2022-08-27T15:55:20.298Z,5.20
2022-08-27T15:57:48.734Z,5.10
2022-08-27T16:00:17.865Z,5.30
2022-08-27T16:02:46.963Z,5.60
2022-08-27T16:05:16.850Z,5.00
2022-08-27T16:07:45.255Z,5.50
2022-08-27T16:10:17.075Z,5.50
2022-08-27T16:12:45.843Z,4.90
2022-08-27T16:15:14.250Z,5.10
2022-08-27T16:17:42.625Z,5.60
2022-08-27T16:20:13.795Z,5.70
2022-08-27T16:22:42.315Z,5.60
2022-08-27T16:25:16.500Z,5.30
2022-08-27T16:27:47.800Z,6.10
2022-08-27T16:30:15.745Z,5.60
2022-08-27T16:32:49.038Z,5.70
2022-08-27T16:35:17.388Z,4.90
2022-08-27T16:37:45.809Z,5.60
2022-08-27T16:40:15.789Z,5.20
2022-08-27T16:42:47.895Z,5.20
2022-08-27T16:45:17.951Z,5.30
2022-08-27T16:48:04.258Z,5.10
2022-08-27T16:50:35.344Z,5.40
2022-08-27T16:53:09.168Z,5.40
2022-08-27T16:55:40.530Z,5.40
2022-08-27T16:58:16.065Z,5.40
2022-08-27T17:00:46.138Z,5.50
2022-08-27T17:03:14.305Z,5.30
2022-08-27T17:05:42.795Z,5.60
2022-08-27T17:08:11.910Z,5.30
2022-08-27T17:10:47.993Z,5.20
2022-08-27T17:13:22.446Z,5.00
2022-08-27T17:15:57.067Z,5.10
2022-08-27T17:18:27.846Z,5.00
2022-08-27T17:20:59.162Z,5.10
2022-08-27T17:23:39.895Z,5.10
2022-08-27T17:26:11.899Z,5.20
2022-08-27T17:28:41.732Z,5.00
2022-08-27T17:31:14.647Z,7.30
2022-08-27T17:33:48.430Z,5.20
2022-08-27T17:36:16.988Z,5.30
2022-08-27T17:38:45.569Z,5.20
2022-08-27T17:41:34.322Z,5.30
2022-08-27T17:44:10.403Z,4.70
2022-08-27T17:46:39.066Z,5.20
2022-08-27T17:49:06.949Z,5.20
2022-08-27T17:51:36.199Z,5.10
2022-08-27T17:54:06.216Z,4.70
2022-08-27T17:56:34.384Z,5.30
2022-08-27T17:59:02.321Z,5.50
2022-08-27T18:01:32.493Z,5.10
2022-08-27T18:04:00.582Z,5.40
2022-08-27T18:06:28.872Z,5.40
2022-08-27T18:08:57.136Z,5.20
2022-08-27T18:11:26.119Z,4.90
2022-08-27T18:14:01.538Z,4.60
2022-08-27T18:16:32.993Z,4.90
2022-08-27T18:19:06.963Z,5.00
2022-08-27T18:21:35.675Z,5.30
2022-08-27T18:24:04.123Z,5.30
2022-08-27T18:26:33.930Z,5.20
2022-08-27T18:29:02.123Z,5.60
2022-08-27T18:31:32.134Z,5.30
2022-08-27T18:34:00.775Z,5.70
2022-08-27T18:36:29.322Z,5.00
2022-08-27T18:39:00.077Z,5.60
2022-08-27T18:41:31.478Z,5.20
2022-08-27T18:44:00.122Z,5.70
2022-08-27T18:46:28.333Z,5.10
2022-08-27T18:48:56.318Z,5.50
2022-08-27T18:51:24.289Z,8.50
2022-08-27T18:53:52.478Z,11.30
2022-08-27T18:56:20.858Z,22.80
2022-08-27T18:58:49.014Z,28.80
2022-08-27T19:01:25.671Z,17.90
2022-08-27T19:03:57.096Z,10.90
2022-08-27T19:06:25.815Z,7.90
2022-08-27T19:08:53.816Z,7.60
2022-08-27T19:11:21.997Z,6.90
2022-08-27T19:13:51.007Z,5.90
2022-08-27T19:16:39.287Z,6.10
2022-08-27T19:19:07.639Z,6.00
2022-08-27T19:21:35.676Z,5.90
2022-08-27T19:24:04.519Z,5.70
2022-08-27T19:26:33.108Z,4.80
2022-08-27T19:29:01.248Z,5.00
2022-08-27T19:31:31.693Z,5.00
2022-08-27T19:34:00.573Z,4.90
2022-08-27T19:36:28.618Z,5.00
2022-08-27T19:38:56.835Z,5.00
2022-08-27T19:41:27.720Z,5.30
2022-08-27T19:43:56.165Z,5.10
2022-08-27T19:46:26.334Z,5.50
2022-08-27T19:48:55.740Z,5.20
2022-08-27T19:51:23.724Z,5.60
2022-08-27T19:53:51.739Z,5.80
2022-08-27T19:56:19.717Z,4.90
2022-08-27T19:58:47.785Z,5.60
2022-08-27T20:01:16.253Z,5.50
2022-08-27T20:03:44.539Z,5.10
2022-08-27T20:06:13.189Z,5.70
2022-08-27T20:08:41.102Z,5.90
2022-08-27T20:11:09.737Z,5.70
2022-08-27T20:13:37.998Z,5.60
2022-08-27T20:16:16.803Z,5.80
2022-08-27T20:18:46.474Z,5.70
2022-08-27T20:21:14.495Z,5.80
2022-08-27T20:23:42.397Z,5.50
2022-08-27T20:26:10.368Z,5.10
2022-08-27T20:28:40.285Z,5.30
2022-08-27T20:31:08.875Z,5.20
2022-08-27T20:33:37.034Z,5.60
2022-08-27T20:36:06.511Z,5.60
2022-08-27T20:38:35.064Z,5.20
2022-08-27T20:41:03.452Z,5.80
2022-08-27T20:43:31.591Z,5.30
2022-08-27T20:46:00.273Z,5.90
2022-08-27T20:48:28.595Z,5.70
2022-08-27T20:50:56.652Z,6.00
2022-08-27T20:53:24.959Z,6.40
2022-08-27T20:55:56.758Z,5.90
2022-08-27T20:58:44.011Z,5.50
2022-08-27T21:01:12.234Z,5.20
2022-08-27T21:03:40.534Z,5.50
2022-08-27T21:06:09.209Z,5.50
2022-08-27T21:08:39.664Z,5.50
2022-08-27T21:11:15.566Z,5.70
2022-08-27T21:13:55.603Z,6.00
2022-08-27T21:16:25.718Z,5.50
2022-08-27T21:18:54.125Z,5.90
2022-08-27T21:21:22.869Z,6.20
2022-08-27T21:23:50.945Z,5.90
2022-08-27T21:26:20.413Z,5.90
2022-08-27T21:28:48.494Z,6.10
2022-08-27T21:31:25.262Z,5.80
2022-08-27T21:33:53.509Z,6.40
2022-08-27T21:36:21.827Z,5.90
2022-08-27T21:38:50.433Z,5.80
2022-08-27T21:41:18.409Z,6.20
2022-08-27T21:43:46.416Z,6.40
2022-08-27T21:46:14.665Z,6.50
2022-08-27T21:48:42.625Z,6.80
2022-08-27T21:51:13.842Z,5.90
2022-08-27T21:53:43.159Z,6.80
2022-08-27T21:56:12.257Z,6.50
2022-08-27T21:58:40.830Z,6.40
2022-08-27T22:01:08.955Z,6.30
2022-08-27T22:03:37.048Z,5.80
2022-08-27T22:06:08.596Z,6.90
2022-08-27T22:08:36.459Z,6.50
2022-08-27T22:11:05.071Z,6.60
2022-08-27T22:13:33.669Z,6.50
2022-08-27T22:16:02.185Z,6.60
2022-08-27T22:18:30.541Z,6.30
2022-08-27T22:21:00.439Z,7.10
2022-08-27T22:23:28.543Z,6.40
2022-08-27T22:25:56.688Z,6.80
2022-08-27T22:28:24.603Z,7.10
2022-08-27T22:30:52.616Z,6.40
2022-08-27T22:33:20.859Z,6.80
2022-08-27T22:35:48.875Z,6.80
2022-08-27T22:38:16.817Z,6.90
2022-08-27T22:40:44.819Z,7.00
2022-08-27T22:43:14.595Z,6.40
2022-08-27T22:45:42.576Z,7.40
2022-08-27T22:48:10.982Z,7.10
2022-08-27T22:50:39.154Z,6.90
2022-08-27T22:53:07.456Z,6.80
2022-08-27T22:55:36.287Z,6.70
2022-08-27T22:58:04.510Z,6.50
2022-08-27T23:00:36.300Z,6.30
2022-08-27T23:03:07.624Z,6.70
2022-08-27T23:05:40.482Z,6.70
2022-08-27T23:08:12.247Z,6.60
2022-08-27T23:10:42.615Z,6.40
2022-08-27T23:13:12.318Z,7.40
2022-08-27T23:15:41.348Z,6.40
2022-08-27T23:18:09.469Z,7.00
2022-08-27T23:20:37.531Z,6.90
2022-08-27T23:23:08.147Z,6.40
2022-08-27T23:25:54.816Z,7.30
2022-08-27T23:28:23.651Z,6.60
2022-08-27T23:30:51.986Z,6.70
2022-08-27T23:33:20.503Z,7.10
2022-08-27T23:35:51.594Z,6.90
2022-08-27T23:38:21.431Z,7.10
2022-08-27T23:40:50.575Z,6.90
2022-08-27T23:43:19.713Z,7.20
2022-08-27T23:45:49.346Z,7.10
2022-08-27T23:48:17.254Z,6.60
2022-08-27T23:50:45.972Z,7.40
2022-08-27T23:53:14.843Z,7.20
2022-08-27T23:55:42.866Z,6.90
2022-08-27T23:58:12.273Z,7.40
